createdAt,value
2023-02-13T00:02:47.226Z,92.20
2023-02-13T00:07:49.174Z,92.10
2023-02-13T00:12:51.166Z,92.20
2023-02-13T00:17:53.055Z,92.20
2023-02-13T00:22:54.973Z,92.10
2023-02-13T00:27:56.901Z,92.10
2023-02-13T00:32:58.694Z,92.10
2023-02-13T00:38:00.617Z,92.10
2023-02-13T00:43:02.531Z,92.10
2023-02-13T00:48:04.584Z,92.00
2023-02-13T00:53:06.416Z,92.00
2023-02-13T00:58:08.340Z,92.00
2023-02-13T01:03:10.472Z,92.00
2023-02-13T01:08:13.453Z,92.00
2023-02-13T01:13:18.521Z,92.10
2023-02-13T01:18:21.096Z,92.10
2023-02-13T01:23:23.086Z,92.20
2023-02-13T01:28:27.056Z,92.30
2023-02-13T01:33:29.873Z,92.30
2023-02-13T01:38:31.862Z,92.40
2023-02-13T01:43:53.391Z,92.50
2023-02-13T01:48:59.404Z,92.50
2023-02-13T01:54:14.588Z,92.60
2023-02-13T01:59:22.274Z,92.60
2023-02-13T02:04:31.490Z,92.70
2023-02-13T02:09:37.719Z,92.70
2023-02-13T02:14:41.282Z,92.70
2023-02-13T02:19:45.009Z,92.80
2023-02-13T02:25:20.239Z,92.80
2023-02-13T02:30:34.158Z,92.80
2023-02-13T02:36:06.833Z,92.90
2023-02-13T02:41:43.060Z,93.00
2023-02-13T02:47:13.698Z,93.10
2023-02-13T02:52:24.810Z,93.40
2023-02-13T02:57:56.984Z,93.10
2023-02-13T03:03:17.637Z,93.20
2023-02-13T03:08:39.764Z,93.20
2023-02-13T03:13:47.851Z,93.30
2023-02-13T03:19:16.448Z,93.30
2023-02-13T03:24:31.232Z,93.70
2023-02-13T03:29:57.895Z,93.40
2023-02-13T03:35:56.618Z,93.40
2023-02-13T03:41:19.916Z,93.50
2023-02-13T03:46:25.733Z,93.30
2023-02-13T03:51:58.259Z,93.40
2023-02-13T03:57:19.014Z,93.50
2023-02-13T04:02:25.767Z,93.50
2023-02-13T04:07:30.748Z,93.60
2023-02-13T04:12:41.181Z,93.60
2023-02-13T04:17:51.957Z,93.70
2023-02-13T04:22:53.778Z,93.80
2023-02-13T04:27:55.666Z,93.80
2023-02-13T04:32:57.541Z,93.90
2023-02-13T04:37:59.340Z,93.90
2023-02-13T04:43:01.213Z,93.90
2023-02-13T04:48:03.044Z,93.90
2023-02-13T04:53:04.916Z,94.00
2023-02-13T04:58:06.863Z,94.10
2023-02-13T05:03:11.380Z,94.10
2023-02-13T05:08:16.543Z,94.10
2023-02-13T05:13:21.709Z,94.10
2023-02-13T05:18:23.862Z,94.20
2023-02-13T05:23:26.301Z,94.30
2023-02-13T05:28:46.980Z,94.30
2023-02-13T05:33:48.915Z,94.30
2023-02-13T05:38:50.832Z,94.30
2023-02-13T05:43:52.651Z,94.40
2023-02-13T05:48:54.774Z,94.30
2023-02-13T05:53:56.764Z,94.40
2023-02-13T05:58:58.674Z,94.40
2023-02-13T06:04:03.668Z,94.50
2023-02-13T06:09:05.835Z,94.50
2023-02-13T06:14:07.722Z,94.50
2023-02-13T06:19:09.731Z,94.50
2023-02-13T06:24:11.554Z,94.50
2023-02-13T06:29:13.765Z,94.50
2023-02-13T06:34:16.019Z,94.40
2023-02-13T06:39:18.122Z,94.30
2023-02-13T06:44:20.012Z,94.40
2023-02-13T06:49:21.922Z,94.40
2023-02-13T06:54:37.088Z,94.40
2023-02-13T06:59:45.937Z,94.40
2023-02-13T07:04:47.901Z,94.50
2023-02-13T07:09:50.003Z,94.50
2023-02-13T07:14:52.013Z,94.50
2023-02-13T07:19:54.011Z,94.60
2023-02-13T07:24:55.925Z,94.60
2023-02-13T07:29:58.057Z,94.60
2023-02-13T07:35:02.362Z,94.60
2023-02-13T07:40:06.510Z,94.60
2023-02-13T07:45:09.039Z,94.60
2023-02-13T07:50:11.872Z,94.60
2023-02-13T07:55:13.669Z,94.70
2023-02-13T08:00:16.693Z,94.70
2023-02-13T08:05:18.861Z,94.80
2023-02-13T08:10:39.757Z,94.80
2023-02-13T08:15:41.977Z,94.70
2023-02-13T08:20:43.890Z,94.80
2023-02-13T08:25:47.671Z,94.80
2023-02-13T08:30:49.606Z,94.80
2023-02-13T08:35:51.504Z,94.80
2023-02-13T08:40:56.567Z,94.90
2023-02-13T08:46:00.602Z,94.90
2023-02-13T08:51:11.443Z,94.90
2023-02-13T08:56:13.610Z,94.90
2023-02-13T09:01:15.920Z,94.90
2023-02-13T09:06:18.101Z,94.90
2023-02-13T09:11:23.176Z,95.00
2023-02-13T09:16:25.231Z,95.10
2023-02-13T09:21:27.171Z,95.00
2023-02-13T09:26:29.068Z,95.10
2023-02-13T09:31:30.996Z,95.10
2023-02-13T09:36:33.340Z,95.20
2023-02-13T09:41:42.358Z,95.20
2023-02-13T09:46:44.595Z,95.30
2023-02-13T09:51:54.267Z,95.30
2023-02-13T09:57:15.766Z,95.40
2023-02-13T10:02:47.936Z,95.40
2023-02-13T10:08:12.562Z,95.50
2023-02-13T10:13:54.699Z,95.50
2023-02-13T10:19:19.340Z,95.50
2023-02-13T10:24:24.012Z,95.60
2023-02-13T10:30:07.073Z,95.60
2023-02-13T10:35:23.789Z,95.60
2023-02-13T10:40:32.752Z,95.70
2023-02-13T10:45:50.156Z,95.70
2023-02-13T10:51:08.172Z,95.70
2023-02-13T10:56:27.976Z,96.10
2023-02-13T11:01:40.055Z,95.80
2023-02-13T11:06:48.376Z,95.80
2023-02-13T11:11:50.801Z,95.80
2023-02-13T11:17:01.202Z,95.90
2023-02-13T11:22:13.449Z,95.90
2023-02-13T11:27:15.392Z,95.90
2023-02-13T11:32:17.520Z,95.90
2023-02-13T11:37:29.363Z,95.90
2023-02-13T11:42:35.871Z,96.10
2023-02-13T11:47:41.160Z,95.90
2023-02-13T11:58:05.000Z,96.30
2023-02-13T12:03:18.344Z,96.00
2023-02-13T12:08:21.990Z,96.00
2023-02-13T12:14:19.737Z,95.90
2023-02-13T12:20:02.519Z,96.30
2023-02-13T12:25:05.064Z,96.00
2023-02-13T12:30:23.872Z,96.00
2023-02-13T12:35:40.733Z,96.20
2023-02-13T12:41:01.735Z,96.30
2023-02-13T12:46:39.547Z,96.40
2023-02-13T12:52:05.190Z,96.30
2023-02-13T12:57:20.802Z,96.40
2023-02-13T13:02:47.785Z,96.50
2023-02-13T13:08:22.360Z,96.60
2023-02-13T13:13:35.309Z,96.60
2023-02-13T13:19:14.189Z,96.70
2023-02-13T13:24:16.237Z,96.70
2023-02-13T13:29:30.645Z,96.60
2023-02-13T13:34:36.246Z,96.20
2023-02-13T13:40:13.632Z,96.20
2023-02-13T13:45:23.805Z,96.20
2023-02-13T13:50:29.016Z,96.30
2023-02-13T13:55:50.270Z,96.30
2023-02-13T14:01:30.888Z,96.30
2023-02-13T14:06:45.546Z,96.40
2023-02-13T14:11:47.933Z,96.40
2023-02-13T14:16:51.504Z,96.30
2023-02-13T14:21:55.700Z,96.30
2023-02-13T14:27:05.777Z,96.40
2023-02-13T14:32:24.703Z,96.20
2023-02-13T14:37:36.792Z,96.30
2023-02-13T14:42:40.625Z,96.70
2023-02-13T14:47:50.864Z,96.70
2023-02-13T14:52:54.109Z,96.80
2023-02-13T14:58:18.884Z,96.40
2023-02-13T15:03:31.620Z,96.50
2023-02-13T15:08:42.582Z,96.40
2023-02-13T15:13:44.449Z,96.40
2023-02-13T15:18:52.326Z,96.40
2023-02-13T15:23:56.731Z,96.40
2023-02-13T15:29:25.869Z,96.40
2023-02-13T15:34:34.213Z,96.40
2023-02-13T15:39:36.144Z,96.40
2023-02-13T15:44:39.864Z,96.50
2023-02-13T15:49:47.510Z,96.50
2023-02-13T15:54:51.628Z,96.90
2023-02-13T15:59:55.558Z,96.60
2023-02-13T16:04:58.873Z,96.60
2023-02-13T16:10:25.704Z,96.60
2023-02-13T16:15:30.992Z,96.50
2023-02-13T16:20:35.197Z,96.00
2023-02-13T16:25:41.121Z,95.70
2023-02-13T16:30:52.572Z,95.50
2023-02-13T16:35:56.497Z,96.10
2023-02-13T16:41:05.882Z,96.00
2023-02-13T16:46:10.850Z,96.10
2023-02-13T16:51:13.254Z,96.10
2023-02-13T16:56:15.565Z,96.10
2023-02-13T17:01:18.263Z,96.10
2023-02-13T17:06:20.296Z,96.00
2023-02-13T17:11:22.886Z,95.90
2023-02-13T17:16:26.357Z,95.80
2023-02-13T17:21:28.346Z,95.80
2023-02-13T17:26:30.877Z,95.70
2023-02-13T17:31:32.993Z,95.70
2023-02-13T17:36:37.718Z,95.60
2023-02-13T17:41:44.298Z,95.50
2023-02-13T17:46:46.331Z,95.40
2023-02-13T17:51:48.253Z,95.40
2023-02-13T17:56:50.266Z,95.40
2023-02-13T18:01:52.601Z,95.30
2023-02-13T18:07:02.321Z,95.50
2023-02-13T18:12:18.659Z,95.10
2023-02-13T18:17:43.142Z,95.00
2023-02-13T18:22:54.019Z,94.90
2023-02-13T18:27:56.132Z,94.90
2023-02-13T18:32:59.254Z,94.80
2023-02-13T18:38:02.863Z,94.70
2023-02-13T18:43:07.241Z,94.60
2023-02-13T18:48:09.582Z,94.60
2023-02-13T18:53:12.241Z,94.50
2023-02-13T18:58:14.258Z,94.60
2023-02-13T19:03:17.414Z,94.50
2023-02-13T19:08:19.382Z,94.40
2023-02-13T19:13:25.274Z,94.30
2023-02-13T19:18:40.646Z,94.30
2023-02-13T19:23:44.732Z,94.30
2023-02-13T19:28:47.274Z,94.30
2023-02-13T19:33:50.447Z,94.20
2023-02-13T19:39:01.069Z,94.20
2023-02-13T19:44:03.007Z,94.10
2023-02-13T19:49:05.280Z,94.00
2023-02-13T19:54:08.785Z,94.00
2023-02-13T19:59:13.343Z,94.00
2023-02-13T20:04:15.315Z,94.00
2023-02-13T20:09:19.571Z,93.90
2023-02-13T20:14:21.899Z,93.90
2023-02-13T20:19:28.587Z,93.90
2023-02-13T20:24:30.755Z,93.80
2023-02-13T20:29:33.403Z,93.90
2023-02-13T20:34:44.373Z,93.90
2023-02-13T20:39:51.875Z,93.90
2023-02-13T20:44:54.089Z,93.90
2023-02-13T20:49:56.484Z,93.80
2023-02-13T20:55:00.831Z,93.80
2023-02-13T21:00:05.029Z,93.90
2023-02-13T21:05:07.040Z,93.90
2023-02-13T21:10:10.245Z,93.90
2023-02-13T21:15:12.156Z,93.80
2023-02-13T21:20:14.135Z,94.00
2023-02-13T21:25:16.090Z,93.90
2023-02-13T21:30:18.070Z,94.10
2023-02-13T21:35:19.923Z,94.20
2023-02-13T21:40:21.917Z,94.20
2023-02-13T21:45:23.820Z,94.30
2023-02-13T21:50:25.738Z,94.30
2023-02-13T21:55:29.168Z,94.40
2023-02-13T22:00:31.122Z,94.40
2023-02-13T22:05:32.984Z,94.50
2023-02-13T22:10:34.933Z,94.50
2023-02-13T22:15:36.940Z,94.50
2023-02-13T22:20:39.935Z,94.60
2023-02-13T22:25:47.949Z,94.60
2023-02-13T22:30:49.987Z,94.50
2023-02-13T22:35:52.530Z,94.60
2023-02-13T22:40:54.489Z,94.50
2023-02-13T22:45:56.372Z,94.60
2023-02-13T22:51:03.559Z,94.60
2023-02-13T22:56:07.084Z,94.60
2023-02-13T23:01:15.355Z,94.60
2023-02-13T23:06:18.349Z,94.60
2023-02-13T23:11:41.733Z,94.60
2023-02-13T23:17:02.548Z,94.60
2023-02-13T23:22:04.479Z,94.60
2023-02-13T23:27:06.612Z,94.70
2023-02-13T23:32:08.726Z,94.70
2023-02-13T23:37:10.637Z,94.80
2023-02-13T23:42:12.506Z,94.90
2023-02-13T23:47:14.327Z,94.90
2023-02-13T23:52:16.240Z,94.90
2023-02-13T23:57:18.452Z,94.90
